sensor_id;sensor_type;location;lat;lon;timestamp;pressure;altitude;pressure_sealevel;temperature;humidity
26192;BME280;13935;55.672;37.764;2023-07-13T05:28:23;99095.28;;;18.95;100.00
26192;BME280;13935;55.672;37.764;2023-07-13T05:29:28;99099.22;;;19.64;100.00
26192;BME280;13935;55.672;37.764;2023-07-13T05:32:06;99104.25;;;20.40;100.00
26192;BME280;13935;55.672;37.764;2023-07-13T05:33:09;99104.84;;;20.44;100.00
26192;BME280;13935;55.672;37.764;2023-07-13T05:38:26;99096.19;;;21.16;100.00
26192;BME280;13935;55.672;37.764;2023-07-13T05:47:29;99100.66;;;19.68;100.00
26192;BME280;13935;55.672;37.764;2023-07-13T05:50:26;99081.44;;;19.58;100.00
26192;BME280;13935;55.672;37.764;2023-07-13T05:55:05;99089.25;;;19.63;100.00
26192;BME280;13935;55.672;37.764;2023-07-13T05:56:23;99081.91;;;19.56;100.00
26192;BME280;13935;55.672;37.764;2023-07-13T05:57:31;99083.63;;;19.54;100.00
26192;BME280;13935;55.672;37.764;2023-07-13T05:58:48;99078.34;;;19.92;100.00
26192;BME280;13935;55.672;37.764;2023-07-13T06:00:38;99073.97;;;19.91;100.00
26192;BME280;13935;55.672;37.764;2023-07-13T06:02:04;99075.53;;;19.56;100.00
26192;BME280;13935;55.672;37.764;2023-07-13T06:03:23;99089.88;;;19.76;100.00
26192;BME280;13935;55.672;37.764;2023-07-13T06:05:14;99079.91;;;19.84;100.00
26192;BME280;13935;55.672;37.764;2023-07-13T06:08:38;99081.25;;;19.26;100.00
26192;BME280;13935;55.672;37.764;2023-07-13T06:10:34;99090.50;;;19.53;100.00
26192;BME280;13935;55.672;37.764;2023-07-13T06:11:56;99084.41;;;19.54;100.00
26192;BME280;13935;55.672;37.764;2023-07-13T06:13:00;99083.50;;;19.57;100.00
26192;BME280;13935;55.672;37.764;2023-07-13T06:14:25;99080.34;;;19.55;100.00
26192;BME280;13935;55.672;37.764;2023-07-13T06:15:29;99080.91;;;19.24;100.00
26192;BME280;13935;55.672;37.764;2023-07-13T06:18:17;99081.75;;;19.42;100.00
26192;BME280;13935;55.672;37.764;2023-07-13T06:19:37;99079.88;;;19.48;100.00
26192;BME280;13935;55.672;37.764;2023-07-13T06:21:19;99080.53;;;19.88;100.00
26192;BME280;13935;55.672;37.764;2023-07-13T06:22:38;99075.25;;;19.99;100.00
26192;BME280;13935;55.672;37.764;2023-07-13T06:24:04;99071.81;;;20.04;100.00
26192;BME280;13935;55.672;37.764;2023-07-13T06:25:25;99071.50;;;20.02;100.00
26192;BME280;13935;55.672;37.764;2023-07-13T06:26:30;99067.59;;;20.17;100.00
26192;BME280;13935;55.672;37.764;2023-07-13T06:27:48;99064.63;;;20.20;100.00
26192;BME280;13935;55.672;37.764;2023-07-13T06:28:51;99068.59;;;20.55;99.34
26192;BME280;13935;55.672;37.764;2023-07-13T06:30:02;99066.41;;;20.59;99.19
26192;BME280;13935;55.672;37.764;2023-07-13T06:31:08;99063.81;;;20.88;96.67
26192;BME280;13935;55.672;37.764;2023-07-13T06:32:13;99061.25;;;20.58;99.68
26192;BME280;13935;55.672;37.764;2023-07-13T06:33:18;99059.19;;;20.67;97.73
26192;BME280;13935;55.672;37.764;2023-07-13T06:34:20;99057.59;;;20.84;95.47
26192;BME280;13935;55.672;37.764;2023-07-13T06:35:32;99052.13;;;20.72;92.90
26192;BME280;13935;55.672;37.764;2023-07-13T06:40:14;99047.31;;;21.04;90.40
26192;BME280;13935;55.672;37.764;2023-07-13T06:46:30;99049.38;;;21.04;86.24
26192;BME280;13935;55.672;37.764;2023-07-13T06:47:32;99055.28;;;21.06;85.28
26192;BME280;13935;55.672;37.764;2023-07-13T06:48:45;99055.94;;;21.01;85.38
26192;BME280;13935;55.672;37.764;2023-07-13T06:50:07;99052.72;;;20.84;87.41
26192;BME280;13935;55.672;37.764;2023-07-13T07:00:06;99048.19;;;20.87;87.14
26192;BME280;13935;55.672;37.764;2023-07-13T07:01:53;99047.28;;;20.72;86.19
26192;BME280;13935;55.672;37.764;2023-07-13T07:03:50;99058.03;;;20.41;83.29
26192;BME280;13935;55.672;37.764;2023-07-13T07:05:52;99052.44;;;20.83;83.64
26192;BME280;13935;55.672;37.764;2023-07-13T07:10:11;99057.63;;;20.66;84.26
